sensor_id;sensor_type;location;lat;lon;timestamp;P1;durP1;ratioP1;P2;durP2;ratioP2
9739;SDS011;4909;42.680;26.324;2022-10-31T00:01:22;13.87;;;9.10;;
9739;SDS011;4909;42.680;26.324;2022-10-31T00:03:50;12.47;;;9.80;;
9739;SDS011;4909;42.680;26.324;2022-10-31T00:06:17;10.40;;;8.97;;
9739;SDS011;4909;42.680;26.324;2022-10-31T00:08:45;15.23;;;9.47;;
9739;SDS011;4909;42.680;26.324;2022-10-31T00:11:12;10.53;;;8.80;;
9739;SDS011;4909;42.680;26.324;2022-10-31T00:13:39;12.70;;;9.20;;
9739;SDS011;4909;42.680;26.324;2022-10-31T00:16:12;11.13;;;9.47;;
9739;SDS011;4909;42.680;26.324;2022-10-31T00:18:40;12.77;;;9.63;;
9739;SDS011;4909;42.680;26.324;2022-10-31T00:21:07;10.47;;;9.23;;
9739;SDS011;4909;42.680;26.324;2022-10-31T00:23:33;9.67;;;8.90;;
9739;SDS011;4909;42.680;26.324;2022-10-31T00:26:02;11.50;;;9.33;;
9739;SDS011;4909;42.680;26.324;2022-10-31T00:28:30;12.67;;;10.33;;
9739;SDS011;4909;42.680;26.324;2022-10-31T00:31:00;12.70;;;9.40;;
9739;SDS011;4909;42.680;26.324;2022-10-31T00:33:27;10.07;;;9.00;;
9739;SDS011;4909;42.680;26.324;2022-10-31T00:35:55;14.57;;;10.23;;
9739;SDS011;4909;42.680;26.324;2022-10-31T00:38:22;11.80;;;9.53;;
9739;SDS011;4909;42.680;26.324;2022-10-31T00:40:49;12.20;;;9.50;;
9739;SDS011;4909;42.680;26.324;2022-10-31T00:43:17;11.73;;;9.90;;
9739;SDS011;4909;42.680;26.324;2022-10-31T00:45:43;21.50;;;12.43;;
9739;SDS011;4909;42.680;26.324;2022-10-31T00:48:10;12.30;;;11.20;;
9739;SDS011;4909;42.680;26.324;2022-10-31T00:50:37;17.53;;;12.50;;
9739;SDS011;4909;42.680;26.324;2022-10-31T00:53:05;11.83;;;10.63;;
9739;SDS011;4909;42.680;26.324;2022-10-31T00:55:32;13.67;;;11.77;;
9739;SDS011;4909;42.680;26.324;2022-10-31T00:57:58;12.93;;;11.80;;
9739;SDS011;4909;42.680;26.324;2022-10-31T01:00:27;12.93;;;11.93;;
9739;SDS011;4909;42.680;26.324;2022-10-31T01:02:53;16.43;;;12.77;;
9739;SDS011;4909;42.680;26.324;2022-10-31T01:05:20;16.43;;;13.83;;
9739;SDS011;4909;42.680;26.324;2022-10-31T01:07:47;18.43;;;14.57;;
9739;SDS011;4909;42.680;26.324;2022-10-31T01:10:14;15.37;;;13.67;;
9739;SDS011;4909;42.680;26.324;2022-10-31T01:12:41;19.37;;;14.73;;
9739;SDS011;4909;42.680;26.324;2022-10-31T01:15:09;15.80;;;14.03;;
9739;SDS011;4909;42.680;26.324;2022-10-31T01:17:39;14.80;;;13.67;;
9739;SDS011;4909;42.680;26.324;2022-10-31T01:20:07;15.77;;;14.10;;
9739;SDS011;4909;42.680;26.324;2022-10-31T01:22:35;16.00;;;13.93;;
9739;SDS011;4909;42.680;26.324;2022-10-31T01:25:02;15.37;;;13.87;;
9739;SDS011;4909;42.680;26.324;2022-10-31T01:27:30;16.13;;;14.80;;
9739;SDS011;4909;42.680;26.324;2022-10-31T01:29:57;15.07;;;13.87;;
9739;SDS011;4909;42.680;26.324;2022-10-31T01:32:24;16.67;;;15.03;;
9739;SDS011;4909;42.680;26.324;2022-10-31T01:34:52;19.03;;;14.80;;
9739;SDS011;4909;42.680;26.324;2022-10-31T01:37:19;13.93;;;12.13;;
9739;SDS011;4909;42.680;26.324;2022-10-31T01:39:46;15.47;;;13.50;;
9739;SDS011;4909;42.680;26.324;2022-10-31T01:42:15;12.60;;;11.40;;
9739;SDS011;4909;42.680;26.324;2022-10-31T01:44:52;14.37;;;11.90;;
9739;SDS011;4909;42.680;26.324;2022-10-31T01:47:25;12.77;;;11.53;;
9739;SDS011;4909;42.680;26.324;2022-10-31T01:49:59;14.37;;;12.53;;
9739;SDS011;4909;42.680;26.324;2022-10-31T01:52:29;14.27;;;12.87;;
9739;SDS011;4909;42.680;26.324;2022-10-31T01:54:59;15.33;;;13.90;;
9739;SDS011;4909;42.680;26.324;2022-10-31T01:57:29;16.97;;;15.30;;
9739;SDS011;4909;42.680;26.324;2022-10-31T01:59:59;16.13;;;14.60;;
9739;SDS011;4909;42.680;26.324;2022-10-31T02:02:28;17.23;;;15.23;;
9739;SDS011;4909;42.680;26.324;2022-10-31T02:04:59;17.67;;;16.23;;
9739;SDS011;4909;42.680;26.324;2022-10-31T02:07:30;16.60;;;15.47;;
9739;SDS011;4909;42.680;26.324;2022-10-31T02:10:03;18.00;;;16.20;;
9739;SDS011;4909;42.680;26.324;2022-10-31T02:12:30;17.30;;;16.00;;
9739;SDS011;4909;42.680;26.324;2022-10-31T02:14:58;17.77;;;16.13;;
9739;SDS011;4909;42.680;26.324;2022-10-31T02:17:26;18.07;;;16.50;;
9739;SDS011;4909;42.680;26.324;2022-10-31T02:19:54;17.23;;;15.80;;
9739;SDS011;4909;42.680;26.324;2022-10-31T02:22:30;15.23;;;13.80;;
9739;SDS011;4909;42.680;26.324;2022-10-31T02:25:10;14.73;;;13.37;;
9739;SDS011;4909;42.680;26.324;2022-10-31T02:27:54;15.10;;;13.73;;
9739;SDS011;4909;42.680;26.324;2022-10-31T02:30:53;14.63;;;13.23;;
9739;SDS011;4909;42.680;26.324;2022-10-31T02:33:28;16.93;;;14.17;;
9739;SDS011;4909;42.680;26.324;2022-10-31T02:36:02;14.83;;;13.43;;
9739;SDS011;4909;42.680;26.324;2022-10-31T02:38:38;14.27;;;12.43;;
9739;SDS011;4909;42.680;26.324;2022-10-31T02:41:17;13.03;;;11.83;;
9739;SDS011;4909;42.680;26.324;2022-10-31T02:43:52;12.03;;;10.93;;
9739;SDS011;4909;42.680;26.324;2022-10-31T02:46:30;12.83;;;11.13;;
9739;SDS011;4909;42.680;26.324;2022-10-31T02:49:10;14.60;;;12.77;;
9739;SDS011;4909;42.680;26.324;2022-10-31T02:51:43;13.80;;;12.23;;
9739;SDS011;4909;42.680;26.324;2022-10-31T02:54:17;13.53;;;12.47;;
9739;SDS011;4909;42.680;26.324;2022-10-31T02:56:45;15.90;;;13.50;;
9739;SDS011;4909;42.680;26.324;2022-10-31T02:59:12;17.00;;;15.00;;
9739;SDS011;4909;42.680;26.324;2022-10-31T03:01:44;16.70;;;13.40;;
9739;SDS011;4909;42.680;26.324;2022-10-31T03:04:26;15.27;;;13.93;;
9739;SDS011;4909;42.680;26.324;2022-10-31T03:07:03;15.90;;;14.27;;
9739;SDS011;4909;42.680;26.324;2022-10-31T03:09:39;14.17;;;12.97;;
9739;SDS011;4909;42.680;26.324;2022-10-31T03:12:14;14.17;;;12.93;;
9739;SDS011;4909;42.680;26.324;2022-10-31T03:14:51;14.47;;;13.37;;
9739;SDS011;4909;42.680;26.324;2022-10-31T03:17:25;13.40;;;12.50;;
9739;SDS011;4909;42.680;26.324;2022-10-31T03:19:58;13.87;;;12.57;;
9739;SDS011;4909;42.680;26.324;2022-10-31T03:22:29;14.63;;;13.37;;
9739;SDS011;4909;42.680;26.324;2022-10-31T03:24:58;14.07;;;12.97;;
9739;SDS011;4909;42.680;26.324;2022-10-31T03:27:29;15.03;;;13.67;;
9739;SDS011;4909;42.680;26.324;2022-10-31T03:30:00;14.10;;;12.70;;
9739;SDS011;4909;42.680;26.324;2022-10-31T03:32:31;14.20;;;12.93;;
9739;SDS011;4909;42.680;26.324;2022-10-31T03:35:02;13.10;;;11.93;;
9739;SDS011;4909;42.680;26.324;2022-10-31T03:37:33;16.50;;;12.87;;
9739;SDS011;4909;42.680;26.324;2022-10-31T03:40:01;13.63;;;12.40;;
9739;SDS011;4909;42.680;26.324;2022-10-31T03:42:33;13.80;;;12.43;;
9739;SDS011;4909;42.680;26.324;2022-10-31T03:45:04;13.23;;;12.03;;
9739;SDS011;4909;42.680;26.324;2022-10-31T03:47:35;11.53;;;10.53;;
9739;SDS011;4909;42.680;26.324;2022-10-31T03:50:05;13.43;;;12.13;;
9739;SDS011;4909;42.680;26.324;2022-10-31T03:52:34;13.73;;;11.57;;
9739;SDS011;4909;42.680;26.324;2022-10-31T03:55:07;14.20;;;12.67;;
9739;SDS011;4909;42.680;26.324;2022-10-31T03:57:39;14.27;;;12.47;;
9739;SDS011;4909;42.680;26.324;2022-10-31T04:00:12;12.50;;;11.40;;
9739;SDS011;4909;42.680;26.324;2022-10-31T04:02:42;14.03;;;12.53;;
9739;SDS011;4909;42.680;26.324;2022-10-31T04:05:12;13.00;;;12.10;;
9739;SDS011;4909;42.680;26.324;2022-10-31T04:07:42;17.50;;;13.70;;
9739;SDS011;4909;42.680;26.324;2022-10-31T04:10:13;16.20;;;14.63;;
9739;SDS011;4909;42.680;26.324;2022-10-31T04:12:42;21.57;;;17.03;;
9739;SDS011;4909;42.680;26.324;2022-10-31T04:15:12;18.63;;;15.77;;
9739;SDS011;4909;42.680;26.324;2022-10-31T04:17:40;16.33;;;14.80;;
9739;SDS011;4909;42.680;26.324;2022-10-31T04:20:11;17.40;;;15.33;;
9739;SDS011;4909;42.680;26.324;2022-10-31T04:22:41;16.37;;;15.10;;
9739;SDS011;4909;42.680;26.324;2022-10-31T04:25:08;16.83;;;15.27;;
9739;SDS011;4909;42.680;26.324;2022-10-31T04:27:35;16.80;;;14.97;;
9739;SDS011;4909;42.680;26.324;2022-10-31T04:30:02;17.93;;;16.23;;
9739;SDS011;4909;42.680;26.324;2022-10-31T04:32:29;15.37;;;13.97;;
9739;SDS011;4909;42.680;26.324;2022-10-31T04:34:57;14.63;;;13.43;;
9739;SDS011;4909;42.680;26.324;2022-10-31T04:37:24;17.93;;;15.17;;
9739;SDS011;4909;42.680;26.324;2022-10-31T04:39:50;14.90;;;13.70;;
9739;SDS011;4909;42.680;26.324;2022-10-31T04:42:17;16.73;;;14.97;;
9739;SDS011;4909;42.680;26.324;2022-10-31T04:44:44;15.50;;;14.00;;
9739;SDS011;4909;42.680;26.324;2022-10-31T04:47:11;15.47;;;14.30;;
9739;SDS011;4909;42.680;26.324;2022-10-31T04:49:37;14.20;;;13.17;;
9739;SDS011;4909;42.680;26.324;2022-10-31T04:52:06;14.10;;;12.90;;
9739;SDS011;4909;42.680;26.324;2022-10-31T04:54:33;14.07;;;12.87;;
9739;SDS011;4909;42.680;26.324;2022-10-31T04:57:00;19.40;;;16.03;;
9739;SDS011;4909;42.680;26.324;2022-10-31T04:59:26;16.27;;;14.83;;
9739;SDS011;4909;42.680;26.324;2022-10-31T05:01:53;16.40;;;14.80;;
9739;SDS011;4909;42.680;26.324;2022-10-31T05:04:20;17.27;;;15.93;;
9739;SDS011;4909;42.680;26.324;2022-10-31T05:06:47;20.47;;;17.40;;
9739;SDS011;4909;42.680;26.324;2022-10-31T05:09:15;17.67;;;16.03;;
9739;SDS011;4909;42.680;26.324;2022-10-31T05:11:41;15.27;;;14.40;;
9739;SDS011;4909;42.680;26.324;2022-10-31T05:14:08;17.13;;;15.43;;
9739;SDS011;4909;42.680;26.324;2022-10-31T05:16:35;18.43;;;16.33;;
9739;SDS011;4909;42.680;26.324;2022-10-31T05:19:02;15.13;;;14.00;;
9739;SDS011;4909;42.680;26.324;2022-10-31T05:21:28;16.43;;;15.07;;
9739;SDS011;4909;42.680;26.324;2022-10-31T05:23:55;15.47;;;13.30;;
9739;SDS011;4909;42.680;26.324;2022-10-31T05:26:23;14.07;;;12.40;;
9739;SDS011;4909;42.680;26.324;2022-10-31T05:28:50;12.60;;;11.40;;
9739;SDS011;4909;42.680;26.324;2022-10-31T05:31:17;15.70;;;10.93;;
9739;SDS011;4909;42.680;26.324;2022-10-31T05:33:44;10.87;;;9.73;;
9739;SDS011;4909;42.680;26.324;2022-10-31T05:36:11;11.57;;;9.60;;
9739;SDS011;4909;42.680;26.324;2022-10-31T05:38:37;9.90;;;8.97;;
9739;SDS011;4909;42.680;26.324;2022-10-31T05:41:04;15.30;;;9.63;;
9739;SDS011;4909;42.680;26.324;2022-10-31T05:43:32;9.57;;;8.53;;
9739;SDS011;4909;42.680;26.324;2022-10-31T05:45:59;10.13;;;9.23;;
9739;SDS011;4909;42.680;26.324;2022-10-31T05:48:26;14.30;;;9.93;;
9739;SDS011;4909;42.680;26.324;2022-10-31T05:50:53;17.27;;;10.53;;
9739;SDS011;4909;42.680;26.324;2022-10-31T05:53:19;12.77;;;9.33;;
9739;SDS011;4909;42.680;26.324;2022-10-31T05:55:46;10.07;;;8.47;;
9739;SDS011;4909;42.680;26.324;2022-10-31T05:58:13;15.03;;;9.53;;
9739;SDS011;4909;42.680;26.324;2022-10-31T06:00:41;11.70;;;9.00;;
9739;SDS011;4909;42.680;26.324;2022-10-31T06:03:08;14.83;;;9.53;;
9739;SDS011;4909;42.680;26.324;2022-10-31T06:05:35;12.87;;;8.70;;
9739;SDS011;4909;42.680;26.324;2022-10-31T06:08:02;15.63;;;9.20;;
9739;SDS011;4909;42.680;26.324;2022-10-31T06:10:29;16.50;;;10.07;;
9739;SDS011;4909;42.680;26.324;2022-10-31T06:12:56;14.23;;;9.10;;
9739;SDS011;4909;42.680;26.324;2022-10-31T06:15:23;12.03;;;9.93;;
9739;SDS011;4909;42.680;26.324;2022-10-31T06:17:58;16.23;;;11.03;;
9739;SDS011;4909;42.680;26.324;2022-10-31T06:20:26;11.37;;;9.87;;
9739;SDS011;4909;42.680;26.324;2022-10-31T06:22:53;13.47;;;10.37;;
9739;SDS011;4909;42.680;26.324;2022-10-31T06:25:19;11.60;;;10.43;;
9739;SDS011;4909;42.680;26.324;2022-10-31T06:27:46;10.20;;;9.27;;
9739;SDS011;4909;42.680;26.324;2022-10-31T06:30:13;13.37;;;10.73;;
9739;SDS011;4909;42.680;26.324;2022-10-31T06:32:40;26.10;;;12.67;;
9739;SDS011;4909;42.680;26.324;2022-10-31T06:35:08;18.47;;;12.23;;
9739;SDS011;4909;42.680;26.324;2022-10-31T06:37:36;15.77;;;11.93;;
9739;SDS011;4909;42.680;26.324;2022-10-31T06:40:03;13.83;;;12.80;;
9739;SDS011;4909;42.680;26.324;2022-10-31T06:42:31;18.60;;;14.97;;
9739;SDS011;4909;42.680;26.324;2022-10-31T06:44:57;17.73;;;15.73;;
9739;SDS011;4909;42.680;26.324;2022-10-31T06:47:24;20.30;;;18.63;;
9739;SDS011;4909;42.680;26.324;2022-10-31T06:49:51;22.73;;;20.90;;
9739;SDS011;4909;42.680;26.324;2022-10-31T06:52:19;33.50;;;31.27;;
9739;SDS011;4909;42.680;26.324;2022-10-31T06:54:46;46.60;;;44.37;;
9739;SDS011;4909;42.680;26.324;2022-10-31T06:57:12;76.30;;;72.43;;
9739;SDS011;4909;42.680;26.324;2022-10-31T06:59:39;108.20;;;102.83;;
9739;SDS011;4909;42.680;26.324;2022-10-31T07:02:07;133.03;;;127.03;;
9739;SDS011;4909;42.680;26.324;2022-10-31T07:04:35;144.40;;;137.80;;
9739;SDS011;4909;42.680;26.324;2022-10-31T07:07:02;146.47;;;139.27;;
9739;SDS011;4909;42.680;26.324;2022-10-31T07:09:30;157.77;;;151.37;;
9739;SDS011;4909;42.680;26.324;2022-10-31T07:11:57;193.83;;;185.73;;
9739;SDS011;4909;42.680;26.324;2022-10-31T07:14:23;244.63;;;233.93;;
9739;SDS011;4909;42.680;26.324;2022-10-31T07:16:50;300.07;;;286.43;;
9739;SDS011;4909;42.680;26.324;2022-10-31T07:19:17;331.17;;;316.67;;
9739;SDS011;4909;42.680;26.324;2022-10-31T07:21:44;366.23;;;349.90;;
9739;SDS011;4909;42.680;26.324;2022-10-31T07:24:11;388.70;;;371.47;;
9739;SDS011;4909;42.680;26.324;2022-10-31T07:26:39;438.00;;;418.33;;
9739;SDS011;4909;42.680;26.324;2022-10-31T07:29:07;495.03;;;472.97;;
9739;SDS011;4909;42.680;26.324;2022-10-31T07:31:34;548.17;;;523.17;;
9739;SDS011;4909;42.680;26.324;2022-10-31T07:34:00;602.80;;;574.77;;
9739;SDS011;4909;42.680;26.324;2022-10-31T07:36:27;656.33;;;624.40;;
9739;SDS011;4909;42.680;26.324;2022-10-31T07:38:54;700.40;;;665.25;;
9739;SDS011;4909;42.680;26.324;2022-10-31T07:41:23;721.88;;;684.92;;
9739;SDS011;4909;42.680;26.324;2022-10-31T07:43:51;734.17;;;695.92;;
9739;SDS011;4909;42.680;26.324;2022-10-31T07:46:18;763.90;;;724.17;;
9739;SDS011;4909;42.680;26.324;2022-10-31T07:48:44;783.17;;;742.55;;
9739;SDS011;4909;42.680;26.324;2022-10-31T07:51:11;774.38;;;734.05;;
9739;SDS011;4909;42.680;26.324;2022-10-31T07:53:38;789.85;;;748.13;;
9739;SDS011;4909;42.680;26.324;2022-10-31T07:56:05;785.25;;;743.97;;
9739;SDS011;4909;42.680;26.324;2022-10-31T07:58:32;795.38;;;754.15;;
9739;SDS011;4909;42.680;26.324;2022-10-31T08:01:00;808.35;;;765.83;;
9739;SDS011;4909;42.680;26.324;2022-10-31T08:03:27;824.35;;;781.28;;
9739;SDS011;4909;42.680;26.324;2022-10-31T08:05:53;822.95;;;778.70;;
9739;SDS011;4909;42.680;26.324;2022-10-31T08:08:20;826.17;;;782.13;;
9739;SDS011;4909;42.680;26.324;2022-10-31T08:10:47;822.95;;;778.60;;
9739;SDS011;4909;42.680;26.324;2022-10-31T08:13:14;828.28;;;783.92;;
9739;SDS011;4909;42.680;26.324;2022-10-31T08:15:40;830.97;;;787.17;;
9739;SDS011;4909;42.680;26.324;2022-10-31T08:18:11;814.70;;;771.10;;
9739;SDS011;4909;42.680;26.324;2022-10-31T08:20:39;817.85;;;774.35;;
9739;SDS011;4909;42.680;26.324;2022-10-31T08:23:06;812.58;;;769.13;;
9739;SDS011;4909;42.680;26.324;2022-10-31T08:25:33;820.67;;;777.25;;
9739;SDS011;4909;42.680;26.324;2022-10-31T08:28:01;813.70;;;770.95;;
9739;SDS011;4909;42.680;26.324;2022-10-31T08:30:29;805.15;;;761.33;;
9739;SDS011;4909;42.680;26.324;2022-10-31T08:32:58;809.40;;;766.25;;
9739;SDS011;4909;42.680;26.324;2022-10-31T08:35:27;828.25;;;784.13;;
9739;SDS011;4909;42.680;26.324;2022-10-31T08:37:55;820.67;;;776.22;;
9739;SDS011;4909;42.680;26.324;2022-10-31T08:40:22;815.67;;;771.45;;
9739;SDS011;4909;42.680;26.324;2022-10-31T08:42:55;828.45;;;783.78;;
9739;SDS011;4909;42.680;26.324;2022-10-31T08:45:22;810.95;;;766.92;;
9739;SDS011;4909;42.680;26.324;2022-10-31T08:47:49;810.03;;;766.72;;
9739;SDS011;4909;42.680;26.324;2022-10-31T08:50:16;808.90;;;765.97;;
9739;SDS011;4909;42.680;26.324;2022-10-31T08:52:45;816.90;;;773.38;;
9739;SDS011;4909;42.680;26.324;2022-10-31T08:55:11;790.90;;;748.05;;
9739;SDS011;4909;42.680;26.324;2022-10-31T08:57:38;793.50;;;751.47;;
9739;SDS011;4909;42.680;26.324;2022-10-31T09:00:06;809.10;;;766.38;;
9739;SDS011;4909;42.680;26.324;2022-10-31T09:02:33;784.65;;;742.42;;
9739;SDS011;4909;42.680;26.324;2022-10-31T09:05:02;803.15;;;761.05;;
9739;SDS011;4909;42.680;26.324;2022-10-31T09:07:29;786.17;;;744.55;;
9739;SDS011;4909;42.680;26.324;2022-10-31T09:09:57;767.92;;;727.47;;
9739;SDS011;4909;42.680;26.324;2022-10-31T09:12:23;769.03;;;728.75;;
9739;SDS011;4909;42.680;26.324;2022-10-31T09:14:50;757.97;;;719.55;;
9739;SDS011;4909;42.680;26.324;2022-10-31T09:17:17;746.87;;;708.20;;
9739;SDS011;4909;42.680;26.324;2022-10-31T09:19:44;731.40;;;693.33;;
9739;SDS011;4909;42.680;26.324;2022-10-31T09:22:10;735.37;;;698.13;;
9739;SDS011;4909;42.680;26.324;2022-10-31T09:24:37;720.83;;;684.17;;
9739;SDS011;4909;42.680;26.324;2022-10-31T09:27:05;677.57;;;644.83;;
9739;SDS011;4909;42.680;26.324;2022-10-31T09:29:34;651.27;;;620.23;;
9739;SDS011;4909;42.680;26.324;2022-10-31T09:32:00;618.43;;;588.03;;
9739;SDS011;4909;42.680;26.324;2022-10-31T09:34:27;604.03;;;575.47;;
9739;SDS011;4909;42.680;26.324;2022-10-31T09:36:54;583.03;;;555.83;;
9739;SDS011;4909;42.680;26.324;2022-10-31T09:39:21;550.60;;;525.40;;
9739;SDS011;4909;42.680;26.324;2022-10-31T09:41:51;529.77;;;505.00;;
9739;SDS011;4909;42.680;26.324;2022-10-31T09:44:30;521.33;;;496.33;;
9739;SDS011;4909;42.680;26.324;2022-10-31T09:47:05;481.87;;;458.77;;
9739;SDS011;4909;42.680;26.324;2022-10-31T09:49:42;452.00;;;431.10;;
9739;SDS011;4909;42.680;26.324;2022-10-31T09:52:22;445.13;;;424.53;;
9739;SDS011;4909;42.680;26.324;2022-10-31T09:54:57;421.70;;;402.53;;
9739;SDS011;4909;42.680;26.324;2022-10-31T09:57:27;426.97;;;406.43;;
9739;SDS011;4909;42.680;26.324;2022-10-31T10:00:00;416.83;;;397.40;;
9739;SDS011;4909;42.680;26.324;2022-10-31T10:02:30;395.07;;;377.00;;
9739;SDS011;4909;42.680;26.324;2022-10-31T10:05:04;404.50;;;385.97;;
9739;SDS011;4909;42.680;26.324;2022-10-31T10:07:39;384.43;;;366.23;;
9739;SDS011;4909;42.680;26.324;2022-10-31T10:10:15;384.50;;;366.23;;
9739;SDS011;4909;42.680;26.324;2022-10-31T10:12:48;388.53;;;370.27;;
9739;SDS011;4909;42.680;26.324;2022-10-31T10:15:32;379.13;;;361.67;;
9739;SDS011;4909;42.680;26.324;2022-10-31T10:18:16;356.20;;;340.03;;
9739;SDS011;4909;42.680;26.324;2022-10-31T10:20:56;357.10;;;340.43;;
9739;SDS011;4909;42.680;26.324;2022-10-31T10:23:35;353.97;;;338.20;;
9739;SDS011;4909;42.680;26.324;2022-10-31T10:26:15;349.57;;;334.03;;
9739;SDS011;4909;42.680;26.324;2022-10-31T10:28:45;343.57;;;327.57;;
9739;SDS011;4909;42.680;26.324;2022-10-31T10:31:18;344.73;;;329.53;;
9739;SDS011;4909;42.680;26.324;2022-10-31T10:33:57;348.90;;;332.80;;
9739;SDS011;4909;42.680;26.324;2022-10-31T10:36:30;348.77;;;332.27;;
9739;SDS011;4909;42.680;26.324;2022-10-31T10:39:03;342.47;;;326.83;;
9739;SDS011;4909;42.680;26.324;2022-10-31T10:41:34;351.00;;;334.63;;
9739;SDS011;4909;42.680;26.324;2022-10-31T10:44:10;340.23;;;325.00;;
9739;SDS011;4909;42.680;26.324;2022-10-31T10:46:41;351.30;;;335.73;;
9739;SDS011;4909;42.680;26.324;2022-10-31T10:49:29;327.20;;;312.47;;
9739;SDS011;4909;42.680;26.324;2022-10-31T10:51:59;319.97;;;305.63;;
9739;SDS011;4909;42.680;26.324;2022-10-31T10:54:43;322.93;;;308.03;;
9739;SDS011;4909;42.680;26.324;2022-10-31T10:57:21;304.67;;;290.60;;
9739;SDS011;4909;42.680;26.324;2022-10-31T10:59:54;304.27;;;290.73;;
9739;SDS011;4909;42.680;26.324;2022-10-31T11:02:23;293.33;;;280.13;;
9739;SDS011;4909;42.680;26.324;2022-10-31T11:04:51;300.00;;;286.60;;
9739;SDS011;4909;42.680;26.324;2022-10-31T11:07:20;288.07;;;275.23;;
9739;SDS011;4909;42.680;26.324;2022-10-31T11:09:47;265.43;;;253.03;;
9739;SDS011;4909;42.680;26.324;2022-10-31T11:12:17;266.97;;;255.63;;
9739;SDS011;4909;42.680;26.324;2022-10-31T11:14:47;261.63;;;250.33;;
9739;SDS011;4909;42.680;26.324;2022-10-31T11:17:19;251.53;;;240.00;;
9739;SDS011;4909;42.680;26.324;2022-10-31T11:20:03;244.63;;;234.17;;
9739;SDS011;4909;42.680;26.324;2022-10-31T11:22:32;264.37;;;252.20;;
9739;SDS011;4909;42.680;26.324;2022-10-31T11:24:59;246.87;;;236.27;;
9739;SDS011;4909;42.680;26.324;2022-10-31T11:27:26;251.27;;;240.57;;
9739;SDS011;4909;42.680;26.324;2022-10-31T11:29:53;247.43;;;236.13;;
9739;SDS011;4909;42.680;26.324;2022-10-31T11:32:32;226.90;;;217.27;;
9739;SDS011;4909;42.680;26.324;2022-10-31T11:35:00;219.93;;;209.87;;
9739;SDS011;4909;42.680;26.324;2022-10-31T11:37:35;217.80;;;208.67;;
9739;SDS011;4909;42.680;26.324;2022-10-31T11:40:15;238.00;;;227.67;;
9739;SDS011;4909;42.680;26.324;2022-10-31T11:42:43;222.93;;;213.97;;
9739;SDS011;4909;42.680;26.324;2022-10-31T11:45:14;223.63;;;214.83;;
9739;SDS011;4909;42.680;26.324;2022-10-31T11:47:44;222.43;;;213.43;;
9739;SDS011;4909;42.680;26.324;2022-10-31T11:50:18;233.10;;;223.10;;
9739;SDS011;4909;42.680;26.324;2022-10-31T11:52:47;222.27;;;212.90;;
9739;SDS011;4909;42.680;26.324;2022-10-31T11:55:16;220.13;;;211.00;;
9739;SDS011;4909;42.680;26.324;2022-10-31T11:57:56;225.73;;;216.17;;
9739;SDS011;4909;42.680;26.324;2022-10-31T12:00:24;234.93;;;225.27;;
9739;SDS011;4909;42.680;26.324;2022-10-31T12:03:06;240.47;;;230.60;;
9739;SDS011;4909;42.680;26.324;2022-10-31T12:05:41;229.30;;;219.43;;
9739;SDS011;4909;42.680;26.324;2022-10-31T12:08:12;238.60;;;228.80;;
9739;SDS011;4909;42.680;26.324;2022-10-31T12:10:46;245.53;;;234.87;;
9739;SDS011;4909;42.680;26.324;2022-10-31T12:13:29;237.90;;;227.73;;
9739;SDS011;4909;42.680;26.324;2022-10-31T12:16:00;223.83;;;214.43;;
9739;SDS011;4909;42.680;26.324;2022-10-31T12:18:39;230.27;;;220.37;;
9739;SDS011;4909;42.680;26.324;2022-10-31T12:21:21;242.80;;;232.60;;
9739;SDS011;4909;42.680;26.324;2022-10-31T12:24:02;242.33;;;231.83;;
9739;SDS011;4909;42.680;26.324;2022-10-31T12:26:38;233.13;;;222.97;;
9739;SDS011;4909;42.680;26.324;2022-10-31T12:29:18;242.40;;;231.50;;
9739;SDS011;4909;42.680;26.324;2022-10-31T12:31:59;231.83;;;221.77;;
9739;SDS011;4909;42.680;26.324;2022-10-31T12:34:45;240.97;;;230.53;;
9739;SDS011;4909;42.680;26.324;2022-10-31T12:37:25;240.43;;;230.23;;
9739;SDS011;4909;42.680;26.324;2022-10-31T12:40:03;250.73;;;239.80;;
9739;SDS011;4909;42.680;26.324;2022-10-31T12:42:46;234.07;;;224.00;;
9739;SDS011;4909;42.680;26.324;2022-10-31T12:45:30;226.47;;;216.50;;
9739;SDS011;4909;42.680;26.324;2022-10-31T12:48:17;206.80;;;197.93;;
9739;SDS011;4909;42.680;26.324;2022-10-31T12:51:06;206.23;;;196.03;;
9739;SDS011;4909;42.680;26.324;2022-10-31T12:53:47;206.70;;;196.47;;
9739;SDS011;4909;42.680;26.324;2022-10-31T12:56:32;211.27;;;202.27;;
9739;SDS011;4909;42.680;26.324;2022-10-31T12:59:08;200.83;;;191.87;;
9739;SDS011;4909;42.680;26.324;2022-10-31T13:01:48;194.80;;;186.03;;
9739;SDS011;4909;42.680;26.324;2022-10-31T13:04:36;199.20;;;190.17;;
9739;SDS011;4909;42.680;26.324;2022-10-31T13:07:10;208.67;;;198.97;;
9739;SDS011;4909;42.680;26.324;2022-10-31T13:09:42;211.43;;;201.60;;
9739;SDS011;4909;42.680;26.324;2022-10-31T13:12:15;210.00;;;200.67;;
9739;SDS011;4909;42.680;26.324;2022-10-31T13:14:46;213.97;;;204.13;;
9739;SDS011;4909;42.680;26.324;2022-10-31T13:17:18;211.30;;;202.10;;
9739;SDS011;4909;42.680;26.324;2022-10-31T13:19:51;207.60;;;197.87;;
9739;SDS011;4909;42.680;26.324;2022-10-31T13:22:27;212.83;;;202.53;;
9739;SDS011;4909;42.680;26.324;2022-10-31T13:25:02;204.77;;;195.60;;
9739;SDS011;4909;42.680;26.324;2022-10-31T13:27:39;196.00;;;187.23;;
9739;SDS011;4909;42.680;26.324;2022-10-31T13:30:13;193.13;;;184.07;;
9739;SDS011;4909;42.680;26.324;2022-10-31T13:32:44;196.43;;;187.20;;
9739;SDS011;4909;42.680;26.324;2022-10-31T13:35:16;195.13;;;186.50;;
9739;SDS011;4909;42.680;26.324;2022-10-31T13:37:50;202.53;;;193.27;;
9739;SDS011;4909;42.680;26.324;2022-10-31T13:40:26;198.77;;;190.13;;
9739;SDS011;4909;42.680;26.324;2022-10-31T13:43:02;190.03;;;181.33;;
9739;SDS011;4909;42.680;26.324;2022-10-31T13:45:35;184.27;;;175.90;;
9739;SDS011;4909;42.680;26.324;2022-10-31T13:48:18;177.80;;;169.93;;
9739;SDS011;4909;42.680;26.324;2022-10-31T13:50:59;167.47;;;160.20;;
9739;SDS011;4909;42.680;26.324;2022-10-31T13:53:36;155.47;;;148.90;;
9739;SDS011;4909;42.680;26.324;2022-10-31T13:56:09;170.07;;;162.20;;
9739;SDS011;4909;42.680;26.324;2022-10-31T13:58:42;163.97;;;156.67;;
9739;SDS011;4909;42.680;26.324;2022-10-31T14:01:28;153.30;;;146.60;;
9739;SDS011;4909;42.680;26.324;2022-10-31T14:03:57;154.90;;;148.33;;
9739;SDS011;4909;42.680;26.324;2022-10-31T14:06:40;145.40;;;138.97;;
9739;SDS011;4909;42.680;26.324;2022-10-31T14:09:32;149.23;;;142.60;;
9739;SDS011;4909;42.680;26.324;2022-10-31T14:12:05;140.90;;;135.27;;
9739;SDS011;4909;42.680;26.324;2022-10-31T14:14:43;151.00;;;143.40;;
9739;SDS011;4909;42.680;26.324;2022-10-31T14:17:17;143.53;;;137.67;;
9739;SDS011;4909;42.680;26.324;2022-10-31T14:19:59;133.67;;;128.23;;
9739;SDS011;4909;42.680;26.324;2022-10-31T14:22:41;143.90;;;137.10;;
9739;SDS011;4909;42.680;26.324;2022-10-31T14:28:02;136.93;;;130.50;;
9739;SDS011;4909;42.680;26.324;2022-10-31T14:30:50;135.83;;;129.63;;
9739;SDS011;4909;42.680;26.324;2022-10-31T14:33:18;131.67;;;126.17;;
9739;SDS011;4909;42.680;26.324;2022-10-31T14:35:49;127.20;;;121.73;;
9739;SDS011;4909;42.680;26.324;2022-10-31T14:38:28;125.83;;;120.37;;
9739;SDS011;4909;42.680;26.324;2022-10-31T14:41:11;124.87;;;119.40;;
9739;SDS011;4909;42.680;26.324;2022-10-31T14:44:05;116.67;;;111.17;;
9739;SDS011;4909;42.680;26.324;2022-10-31T14:46:48;107.50;;;102.27;;
9739;SDS011;4909;42.680;26.324;2022-10-31T14:49:27;122.40;;;117.03;;